TOM4107 EGKK-LEIB
Flight info
| Callsign | TOM4107 |
|---|---|
| Flight time | N/A |
| Altitude | 35000 |
| Route | BOGNA L612 BENBO Y47 DRAKE L151 SITET UN859 SOPIL DCT BALAN DCT EVPOK DCT NARAK DCT GAI DCT LOMRA DCT ROCAN DCT PUMAL N859 BCN Z174 CORDA |
| Aircraft | B789/H-SDE1E2E3FGHIJ2J3J4J5M1RWXY/LB1D1 |
Departure
| Time | 2026-04-14 15:38 |
|---|---|
| Airport | London Gatwick Airport (EGKK) |
Arrival
| Time | N/A |
|---|---|
| Airport | Ibiza Airport (LEIB) |
| Time | Latitude | Longitude | Altitude | Speed | Heading |
|---|---|---|---|---|---|
| 2026-04-14 14:44 | 51.15607 | -0.16778 | 219 ft | 0 kts | 168° |
| 2026-04-14 14:45 | 51.15607 | -0.16779 | 219 ft | 0 kts | 168° |
| 2026-04-14 14:46 | 51.15608 | -0.16779 | 219 ft | 0 kts | 168° |
| 2026-04-14 14:56 | 51.15609 | -0.16779 | 209 ft | 0 kts | 168° |
| 2026-04-14 15:17 | 51.15620 | -0.16783 | 220 ft | 4 kts | 168° |
| 2026-04-14 15:17 | 51.15646 | -0.16792 | 213 ft | 4 kts | 168° |
| 2026-04-14 15:18 | 51.15670 | -0.16792 | 210 ft | 4 kts | 216° |
| 2026-04-14 15:18 | 51.15680 | -0.16767 | 214 ft | 2 kts | 258° |
| 2026-04-14 15:18 | 51.15686 | -0.16728 | 211 ft | 3 kts | 258° |
| 2026-04-14 15:18 | 51.15687 | -0.16722 | 211 ft | 1 kts | 258° |
| 2026-04-14 15:19 | 51.15687 | -0.16721 | 211 ft | 0 kts | 258° |
| 2026-04-14 15:23 | 51.15681 | -0.16761 | 214 ft | 9 kts | 258° |
| 2026-04-14 15:23 | 51.15662 | -0.16905 | 219 ft | 16 kts | 257° |
| 2026-04-14 15:24 | 51.15637 | -0.17084 | 209 ft | 17 kts | 257° |
| 2026-04-14 15:24 | 51.15611 | -0.17256 | 215 ft | 7 kts | 256° |
| 2026-04-14 15:24 | 51.15602 | -0.17294 | 220 ft | 4 kts | 236° |
| 2026-04-14 15:24 | 51.15578 | -0.17315 | 221 ft | 3 kts | 188° |
| 2026-04-14 15:25 | 51.15548 | -0.17312 | 217 ft | 5 kts | 172° |
| 2026-04-14 15:25 | 51.15507 | -0.17299 | 209 ft | 8 kts | 168° |
| 2026-04-14 15:25 | 51.15438 | -0.17274 | 213 ft | 11 kts | 167° |
| 2026-04-14 15:25 | 51.15362 | -0.17247 | 215 ft | 10 kts | 167° |
| 2026-04-14 15:26 | 51.15299 | -0.17223 | 217 ft | 10 kts | 161° |
| 2026-04-14 15:26 | 51.15242 | -0.17172 | 218 ft | 8 kts | 146° |
| 2026-04-14 15:26 | 51.15225 | -0.17152 | 219 ft | 1 kts | 142° |
| 2026-04-14 15:26 | 51.15224 | -0.17151 | 219 ft | 0 kts | 142° |
| 2026-04-14 15:27 | 51.15225 | -0.17151 | 219 ft | 0 kts | 142° |
| 2026-04-14 15:28 | 51.15225 | -0.17152 | 219 ft | 0 kts | 142° |
| 2026-04-14 15:29 | 51.15212 | -0.17132 | 219 ft | 6 kts | 128° |
| 2026-04-14 15:29 | 51.15203 | -0.17072 | 217 ft | 6 kts | 89° |
| 2026-04-14 15:29 | 51.15204 | -0.17063 | 217 ft | 0 kts | 82° |
| 2026-04-14 15:31 | 51.15204 | -0.17059 | 217 ft | 3 kts | 82° |
| 2026-04-14 15:32 | 51.15211 | -0.16985 | 209 ft | 1 kts | 79° |
| 2026-04-14 15:34 | 51.15213 | -0.16970 | 209 ft | 4 kts | 79° |
| 2026-04-14 15:34 | 51.15215 | -0.16952 | 214 ft | 0 kts | 79° |
| 2026-04-14 15:34 | 51.15215 | -0.16953 | 214 ft | 0 kts | 79° |
| 2026-04-14 15:35 | 51.15216 | -0.16948 | 215 ft | 1 kts | 79° |
| 2026-04-14 15:35 | 51.15219 | -0.16905 | 213 ft | 6 kts | 85° |
| 2026-04-14 15:36 | 51.15211 | -0.16836 | 216 ft | 7 kts | 116° |
| 2026-04-14 15:36 | 51.15180 | -0.16800 | 214 ft | 7 kts | 167° |
| 2026-04-14 15:36 | 51.15134 | -0.16820 | 216 ft | 5 kts | 225° |
| 2026-04-14 15:36 | 51.15115 | -0.16879 | 216 ft | 6 kts | 255° |
| 2026-04-14 15:37 | 51.15101 | -0.16964 | 215 ft | 14 kts | 257° |
| 2026-04-14 15:37 | 51.15039 | -0.17413 | 218 ft | 72 kts | 257° |
| 2026-04-14 15:37 | 51.14885 | -0.18518 | 221 ft | 131 kts | 257° |
| 2026-04-14 15:37 | 51.14671 | -0.20140 | 484 ft | 156 kts | 260° |
| 2026-04-14 15:38 | 51.14447 | -0.21869 | 1108 ft | 158 kts | 252° |
| 2026-04-14 15:38 | 51.14191 | -0.23616 | 1683 ft | 163 kts | 249° |
| 2026-04-14 15:38 | 51.13921 | -0.25290 | 2445 ft | 154 kts | 248° |
| 2026-04-14 15:38 | 51.13676 | -0.26999 | 2942 ft | 158 kts | 251° |
| 2026-04-14 15:39 | 51.13445 | -0.28746 | 3368 ft | 168 kts | 253° |
| 2026-04-14 15:39 | 51.13188 | -0.30634 | 3726 ft | 182 kts | 252° |
| 2026-04-14 15:39 | 51.12904 | -0.32678 | 4068 ft | 195 kts | 252° |
| 2026-04-14 15:39 | 51.12609 | -0.34814 | 4522 ft | 202 kts | 253° |
| 2026-04-14 15:40 | 51.12284 | -0.37093 | 4847 ft | 217 kts | 253° |
| 2026-04-14 15:40 | 51.11841 | -0.39345 | 5151 ft | 216 kts | 237° |
| 2026-04-14 15:40 | 51.10803 | -0.41086 | 5155 ft | 217 kts | 213° |
| 2026-04-14 15:40 | 51.09415 | -0.41933 | 5135 ft | 216 kts | 191° |
| 2026-04-14 15:41 | 51.07906 | -0.41901 | 5086 ft | 219 kts | 179° |
| 2026-04-14 15:41 | 51.06327 | -0.41680 | 4989 ft | 241 kts | 177° |
| 2026-04-14 15:41 | 51.04624 | -0.41412 | 4996 ft | 248 kts | 177° |
| 2026-04-14 15:41 | 51.02909 | -0.41187 | 4996 ft | 247 kts | 178° |
| 2026-04-14 15:42 | 51.01195 | -0.40981 | 5004 ft | 247 kts | 178° |
| 2026-04-14 15:42 | 50.99462 | -0.40766 | 5088 ft | 255 kts | 178° |
| 2026-04-14 15:42 | 50.97691 | -0.40538 | 5855 ft | 253 kts | 178° |
| 2026-04-14 15:42 | 50.95947 | -0.40313 | 6710 ft | 252 kts | 179° |
| 2026-04-14 15:43 | 50.94187 | -0.40093 | 7386 ft | 256 kts | 178° |
| 2026-04-14 15:43 | 50.92399 | -0.39868 | 8043 ft | 260 kts | 178° |
| 2026-04-14 15:43 | 50.90587 | -0.39638 | 8725 ft | 263 kts | 178° |
| 2026-04-14 15:43 | 50.88755 | -0.39406 | 9404 ft | 266 kts | 178° |
| 2026-04-14 15:44 | 50.86895 | -0.39171 | 10070 ft | 270 kts | 178° |
| 2026-04-14 15:44 | 50.85011 | -0.38933 | 10683 ft | 274 kts | 178° |
| 2026-04-14 15:44 | 50.83115 | -0.38399 | 11119 ft | 286 kts | 161° |
| 2026-04-14 15:44 | 50.81341 | -0.36773 | 11466 ft | 304 kts | 151° |
| 2026-04-14 15:45 | 50.79536 | -0.34871 | 11785 ft | 320 kts | 149° |
| 2026-04-14 15:45 | 50.77649 | -0.32849 | 12109 ft | 335 kts | 149° |
| 2026-04-14 15:45 | 50.75661 | -0.30788 | 12431 ft | 350 kts | 150° |
| 2026-04-14 15:45 | 50.73573 | -0.28655 | 12764 ft | 364 kts | 149° |
| 2026-04-14 15:46 | 50.71433 | -0.26449 | 13287 ft | 371 kts | 149° |
| 2026-04-14 15:46 | 50.69999 | -0.24960 | 13660 ft | 375 kts | 149° |
| 2026-04-14 15:46 | 50.69496 | -0.24438 | 13775 ft | 376 kts | 149° |
| 2026-04-14 15:47 | 50.69073 | -0.23997 | 13891 ft | 377 kts | 149° |
| 2026-04-14 15:47 | 50.67165 | -0.21987 | 14329 ft | 382 kts | 148° |
| 2026-04-14 15:47 | 50.64974 | -0.19671 | 14871 ft | 386 kts | 148° |
| 2026-04-14 15:47 | 50.62723 | -0.17311 | 15366 ft | 391 kts | 148° |
| 2026-04-14 15:48 | 50.60444 | -0.14934 | 15885 ft | 395 kts | 148° |
| 2026-04-14 15:48 | 50.58144 | -0.12533 | 16378 ft | 399 kts | 148° |
| 2026-04-14 15:48 | 50.55819 | -0.10102 | 16906 ft | 403 kts | 148° |
| 2026-04-14 15:48 | 50.53470 | -0.07651 | 17405 ft | 407 kts | 148° |
| 2026-04-14 15:49 | 50.51099 | -0.05182 | 17884 ft | 411 kts | 148° |
| 2026-04-14 15:49 | 50.48703 | -0.02701 | 18373 ft | 414 kts | 149° |
| 2026-04-14 15:49 | 50.46094 | -0.00785 | 18704 ft | 415 kts | 165° |
| 2026-04-14 15:49 | 50.43268 | -0.00101 | 19274 ft | 409 kts | 181° |
| 2026-04-14 15:50 | 50.40460 | -0.00585 | 19726 ft | 406 kts | 195° |
| 2026-04-14 15:50 | 50.37700 | -0.01609 | 20042 ft | 410 kts | 197° |
| 2026-04-14 15:50 | 50.36641 | -0.02014 | 20156 ft | 413 kts | 197° |
| 2026-04-14 15:50 | 50.33831 | -0.03063 | 20505 ft | 417 kts | 196° |
| 2026-04-14 15:51 | 50.30982 | -0.04052 | 20901 ft | 421 kts | 195° |
| 2026-04-14 15:51 | 50.28116 | -0.05044 | 21296 ft | 423 kts | 196° |
| 2026-04-14 15:51 | 50.26213 | -0.05723 | 21558 ft | 425 kts | 196° |
| 2026-04-14 15:51 | 50.22280 | -0.06603 | 21957 ft | 436 kts | 182° |
| 2026-04-14 15:52 | 50.19248 | -0.06048 | 22325 ft | 443 kts | 169° |
| 2026-04-14 15:52 | 50.16365 | -0.04468 | 22656 ft | 448 kts | 158° |
| 2026-04-14 15:52 | 50.14439 | -0.03117 | 22903 ft | 450 kts | 158° |
| 2026-04-14 15:52 | 50.10646 | -0.00448 | 23390 ft | 452 kts | 159° |
| 2026-04-14 15:53 | 50.08630 | 0.00604 | 23564 ft | 452 kts | 167° |
| 2026-04-14 15:53 | 50.05575 | 0.01780 | 23869 ft | 454 kts | 169° |
| 2026-04-14 15:53 | 50.02493 | 0.02938 | 24146 ft | 457 kts | 168° |
| 2026-04-14 15:53 | 49.99399 | 0.04158 | 24420 ft | 460 kts | 168° |
| 2026-04-14 15:54 | 49.93165 | 0.06650 | 24954 ft | 465 kts | 168° |
| 2026-04-14 15:54 | 49.90030 | 0.07862 | 25202 ft | 468 kts | 168° |
| 2026-04-14 15:54 | 49.86853 | 0.09099 | 25462 ft | 470 kts | 168° |
| 2026-04-14 15:55 | 49.83672 | 0.10352 | 25719 ft | 473 kts | 168° |
| 2026-04-14 15:55 | 49.80520 | 0.11591 | 25968 ft | 475 kts | 168° |
| 2026-04-14 15:55 | 49.77305 | 0.12842 | 26221 ft | 478 kts | 168° |
| 2026-04-14 15:55 | 49.74068 | 0.14099 | 26461 ft | 480 kts | 168° |
| 2026-04-14 15:56 | 49.70674 | 0.15421 | 26709 ft | 483 kts | 168° |
| 2026-04-14 15:56 | 49.67516 | 0.16652 | 26945 ft | 485 kts | 168° |
| 2026-04-14 15:56 | 49.64280 | 0.17942 | 27186 ft | 488 kts | 167° |
| 2026-04-14 15:56 | 49.60970 | 0.19304 | 27442 ft | 491 kts | 167° |
| 2026-04-14 15:57 | 49.57659 | 0.20654 | 27690 ft | 493 kts | 167° |
| 2026-04-14 15:57 | 49.54333 | 0.21978 | 27953 ft | 495 kts | 168° |
| 2026-04-14 15:57 | 49.50987 | 0.23308 | 28195 ft | 498 kts | 167° |
| 2026-04-14 15:57 | 49.47638 | 0.24656 | 28429 ft | 501 kts | 167° |
| 2026-04-14 15:58 | 49.44266 | 0.26014 | 28667 ft | 504 kts | 167° |
| 2026-04-14 15:58 | 49.40866 | 0.27371 | 28935 ft | 506 kts | 167° |
| 2026-04-14 15:58 | 49.37450 | 0.28730 | 29214 ft | 509 kts | 167° |
| 2026-04-14 15:58 | 49.34013 | 0.30100 | 29480 ft | 511 kts | 167° |
| 2026-04-14 15:59 | 49.30566 | 0.31475 | 29792 ft | 513 kts | 167° |
| 2026-04-14 15:59 | 49.27116 | 0.32894 | 30145 ft | 514 kts | 166° |
| 2026-04-14 15:59 | 49.23675 | 0.34393 | 30481 ft | 514 kts | 166° |
| 2026-04-14 15:59 | 49.20276 | 0.35859 | 30815 ft | 515 kts | 166° |
| 2026-04-14 16:00 | 49.16826 | 0.37289 | 31139 ft | 515 kts | 167° |
| 2026-04-14 16:00 | 49.13362 | 0.38717 | 31465 ft | 515 kts | 167° |
| 2026-04-14 16:00 | 49.09901 | 0.40175 | 31800 ft | 516 kts | 166° |
| 2026-04-14 16:00 | 49.06446 | 0.41643 | 32124 ft | 516 kts | 166° |
| 2026-04-14 16:01 | 49.02982 | 0.43092 | 32446 ft | 517 kts | 167° |
| 2026-04-14 16:01 | 48.99506 | 0.44529 | 32809 ft | 517 kts | 166° |
| 2026-04-14 16:01 | 48.96026 | 0.45977 | 33091 ft | 519 kts | 166° |
| 2026-04-14 16:01 | 48.92538 | 0.47437 | 33432 ft | 520 kts | 166° |
| 2026-04-14 16:02 | 48.89050 | 0.48890 | 33800 ft | 520 kts | 166° |
| 2026-04-14 16:02 | 48.85558 | 0.50336 | 34146 ft | 520 kts | 167° |
| 2026-04-14 16:02 | 48.82068 | 0.51780 | 34454 ft | 520 kts | 167° |
| 2026-04-14 16:02 | 48.78474 | 0.53270 | 34784 ft | 520 kts | 167° |
| 2026-04-14 16:03 | 48.75079 | 0.54638 | 35042 ft | 521 kts | 168° |
| 2026-04-14 16:03 | 48.71566 | 0.55978 | 35150 ft | 516 kts | 168° |
| 2026-04-14 16:03 | 48.68144 | 0.57290 | 35147 ft | 500 kts | 168° |
| 2026-04-14 16:03 | 48.64834 | 0.58604 | 35135 ft | 486 kts | 167° |
| 2026-04-14 16:04 | 48.61591 | 0.59890 | 35153 ft | 480 kts | 167° |
| 2026-04-14 16:04 | 48.55064 | 0.62412 | 35149 ft | 489 kts | 168° |
| 2026-04-14 16:05 | 48.48472 | 0.65023 | 35145 ft | 489 kts | 167° |
| 2026-04-14 16:05 | 48.41910 | 0.67744 | 35156 ft | 489 kts | 167° |
| 2026-04-14 16:06 | 48.35338 | 0.70377 | 35161 ft | 489 kts | 167° |
| 2026-04-14 16:06 | 48.28768 | 0.73053 | 35155 ft | 489 kts | 167° |
| 2026-04-14 16:07 | 48.22184 | 0.75690 | 35155 ft | 489 kts | 167° |
| 2026-04-14 16:07 | 48.15585 | 0.78265 | 35155 ft | 491 kts | 167° |
| 2026-04-14 16:08 | 48.08970 | 0.80876 | 35156 ft | 491 kts | 167° |
| 2026-04-14 16:08 | 48.02361 | 0.83457 | 35155 ft | 491 kts | 167° |
| 2026-04-14 16:09 | 47.95758 | 0.86039 | 35173 ft | 491 kts | 166° |
| 2026-04-14 16:09 | 47.89186 | 0.88599 | 35173 ft | 491 kts | 166° |
| 2026-04-14 16:10 | 47.82569 | 0.91169 | 35175 ft | 491 kts | 166° |
| 2026-04-14 16:10 | 47.75943 | 0.93737 | 35180 ft | 492 kts | 166° |
| 2026-04-14 16:11 | 47.69312 | 0.96300 | 35180 ft | 493 kts | 166° |
| 2026-04-14 16:11 | 47.62681 | 0.98856 | 35184 ft | 493 kts | 166° |
| 2026-04-14 16:12 | 47.56041 | 1.01408 | 35181 ft | 493 kts | 166° |
| 2026-04-14 16:12 | 47.49400 | 1.03955 | 35181 ft | 493 kts | 166° |
| 2026-04-14 16:13 | 47.42726 | 1.06280 | 35139 ft | 492 kts | 176° |
| 2026-04-14 16:13 | 47.35932 | 1.06282 | 35190 ft | 489 kts | 184° |
| 2026-04-14 16:14 | 47.29109 | 1.06112 | 35189 ft | 491 kts | 183° |
| 2026-04-14 16:14 | 47.22295 | 1.05968 | 35192 ft | 489 kts | 184° |
| 2026-04-14 16:15 | 47.15481 | 1.05794 | 35181 ft | 490 kts | 183° |
| 2026-04-14 16:15 | 47.08655 | 1.05646 | 35182 ft | 491 kts | 184° |
| 2026-04-14 16:16 | 47.01818 | 1.05479 | 35188 ft | 491 kts | 184° |
| 2026-04-14 16:16 | 46.95000 | 1.05176 | 35179 ft | 490 kts | 185° |
| 2026-04-14 16:17 | 46.88161 | 1.04876 | 35182 ft | 492 kts | 184° |
| 2026-04-14 16:17 | 46.81314 | 1.04598 | 35173 ft | 492 kts | 184° |
| 2026-04-14 16:18 | 46.74486 | 1.04295 | 35170 ft | 492 kts | 184° |
| 2026-04-14 16:18 | 46.67632 | 1.04014 | 35190 ft | 494 kts | 184° |
| 2026-04-14 16:19 | 46.60759 | 1.03717 | 35191 ft | 495 kts | 184° |
| 2026-04-14 16:19 | 46.53762 | 1.03426 | 35201 ft | 510 kts | 183° |
| 2026-04-14 16:19 | 46.50235 | 1.03756 | 35188 ft | 520 kts | 171° |
| 2026-04-14 16:20 | 46.46644 | 1.04861 | 35181 ft | 519 kts | 166° |
| 2026-04-14 16:20 | 46.43249 | 1.06136 | 35172 ft | 504 kts | 165° |
| 2026-04-14 16:20 | 46.39885 | 1.07345 | 35167 ft | 492 kts | 167° |